Time;durP1;ratioP1;P1;durP2;ratioP2;P2;SDS_P1;SDS_P2;PMS_P1;PMS_P2;Temp;Humidity;BMP_temperature;BMP_pressure;BME280_temperature;BME280_humidity;BME280_pressure;Samples;Min_cycle;Max_cycle;Signal;HPM_P1;HPM_P2
2022/05/15 00:05:11;;;;;;;;;7.25;6.75;;;;;22.06;36.37;100986.63;6256677;22;45507;-76
2022/05/15 00:07:37;;;;;;;;;9.75;7.75;;;;;22.07;36.48;101000.78;6270632;22;45538;-77
2022/05/15 00:10:05;;;;;;;;;10.25;7.75;;;;;22.06;37.23;100985.78;6269947;22;46517;-77
2022/05/15 00:12:31;;;;;;;;;6.50;6.00;;;;;22.06;36.91;100986.63;6270452;22;45783;-77
2022/05/15 00:14:57;;;;;;;;;7.50;7.00;;;;;22.06;37.05;100972.44;6270476;22;45487;-75
2022/05/15 00:17:23;;;;;;;;;7.00;6.75;;;;;22.05;37.13;100974.28;6242436;22;45654;-77
2022/05/15 00:19:48;;;;;;;;;7.25;6.25;;;;;22.05;37.04;100976.09;6242274;22;47608;-75
2022/05/15 00:22:14;;;;;;;;;7.75;7.00;;;;;22.04;37.18;100967.25;6267935;22;45884;-75
2022/05/15 00:24:40;;;;;;;;;5.25;5.00;;;;;22.03;37.37;100965.59;6270242;22;45593;-76
2022/05/15 00:27:06;;;;;;;;;7.25;7.00;;;;;22.02;37.36;100960.44;6242478;22;45507;-77
2022/05/15 00:29:31;;;;;;;;;8.25;6.00;;;;;22.04;37.74;100961.09;6270188;22;46153;-77
2022/05/15 00:35:19;;;;;;;;;8.50;7.00;;;;;22.01;37.57;100958.78;6270115;22;45518;-77
2022/05/15 00:37:45;;;;;;;;;9.00;6.75;;;;;21.95;37.19;100954.97;6270076;22;45612;-77
2022/05/15 00:40:13;;;;;;;;;7.00;6.00;;;;;21.92;37.57;100944.59;6241750;22;48442;-76
2022/05/15 00:42:38;;;;;;;;;8.50;8.00;;;;;21.90;37.72;100970.66;6270009;22;45781;-77
2022/05/15 00:45:06;;;;;;;;;10.25;7.50;;;;;21.85;37.49;100957.00;6242043;22;45591;-77
2022/05/15 00:47:31;;;;;;;;;8.00;6.50;;;;;21.78;37.94;100953.34;6270266;22;45439;-76
2022/05/15 00:49:57;;;;;;;;;7.00;6.00;;;;;21.78;37.80;100950.69;6269845;22;45530;-76
2022/05/15 00:52:28;;;;;;;;;6.75;6.00;;;;;21.82;38.27;100959.16;6269124;22;45694;-76
2022/05/15 00:55:03;;;;;;;;;5.75;5.75;;;;;21.78;37.52;100946.19;6268231;22;45439;-74
2022/05/15 00:57:37;;;;;;;;;6.00;5.50;;;;;21.74;38.25;100930.69;6267181;22;45627;-75
2022/05/15 01:00:17;;;;;;;;;7.25;6.00;;;;;21.71;38.29;100945.19;6269624;22;45821;-74
2022/05/15 01:03:04;;;;;;;;;6.25;6.00;;;;;21.65;37.80;100937.88;6269183;22;45970;-75
2022/05/15 01:05:34;;;;;;;;;6.00;5.75;;;;;21.62;38.05;100934.75;6241083;22;45621;-76
2022/05/15 01:07:59;;;;;;;;;4.75;4.75;;;;;21.57;38.24;100929.94;6270718;22;46003;-76
2022/05/15 01:10:25;;;;;;;;;6.00;5.25;;;;;21.52;38.37;100936.78;6270547;22;46347;-76
2022/05/15 01:12:52;;;;;;;;;5.75;5.50;;;;;21.48;38.08;100920.31;6271119;22;45562;-76
2022/05/15 01:15:24;;;;;;;;;3.75;3.75;;;;;21.47;38.53;100934.63;6270518;22;45542;-76
2022/05/15 01:17:50;;;;;;;;;5.50;5.50;;;;;21.44;38.37;100921.63;6271462;22;45719;-76
2022/05/15 01:20:19;;;;;;;;;6.75;5.00;;;;;21.37;38.42;100912.69;6271098;22;45629;-76
2022/05/15 01:22:46;;;;;;;;;5.00;5.00;;;;;21.37;38.66;100922.50;6269746;22;45975;-75
2022/05/15 01:25:15;;;;;;;;;6.00;6.00;;;;;21.33;38.45;100925.50;6271232;22;45511;-77
2022/05/15 01:27:47;;;;;;;;;6.50;6.00;;;;;21.30;38.58;100928.50;6271117;22;45671;-77
2022/05/15 01:30:13;;;;;;;;;5.25;5.25;;;;;21.26;38.73;100921.03;6269941;22;46607;-77
2022/05/15 01:36:00;;;;;;;;;5.00;5.00;;;;;21.24;38.73;100915.88;6271092;22;45817;-75
2022/05/15 01:38:26;;;;;;;;;5.75;5.00;;;;;21.21;39.31;100920.72;6271375;22;45694;-75
2022/05/15 01:40:51;;;;;;;;;5.75;5.00;;;;;21.17;39.13;100916.69;6270451;22;45585;-76
2022/05/15 01:43:17;;;;;;;;;5.25;5.00;;;;;21.14;38.94;100909.03;6270896;22;45615;-76
2022/05/15 01:45:43;;;;;;;;;6.00;5.75;;;;;21.11;38.96;100906.69;6271042;22;45825;-76
2022/05/15 01:48:08;;;;;;;;;4.25;4.25;;;;;21.09;39.11;100909.53;6271463;22;45773;-75
2022/05/15 01:50:34;;;;;;;;;5.75;5.00;;;;;21.08;38.96;100909.69;6270940;22;46233;-74
2022/05/15 01:52:59;;;;;;;;;4.25;4.00;;;;;21.03;39.08;100902.22;6271244;22;46116;-77
2022/05/15 01:55:25;;;;;;;;;5.25;5.00;;;;;21.03;39.13;100907.56;6271268;22;45637;-76
2022/05/15 01:57:50;;;;;;;;;5.25;3.75;;;;;21.04;39.38;100905.72;6271186;22;45793;-74
2022/05/15 02:00:19;;;;;;;;;5.00;5.00;;;;;21.01;39.37;100903.38;6242889;22;46337;-76
2022/05/15 02:06:07;;;;;;;;;4.75;4.00;;;;;20.97;39.67;100894.06;6268453;22;45480;-77
2022/05/15 02:08:34;;;;;;;;;3.25;3.25;;;;;20.95;39.66;100894.22;6271168;22;45668;-76
2022/05/15 02:11:00;;;;;;;;;5.25;4.00;;;;;20.93;39.54;100888.25;6270897;22;45593;-76
2022/05/15 02:13:25;;;;;;;;;5.50;5.00;;;;;20.92;39.42;100881.25;6271228;22;45900;-77
2022/05/15 02:15:51;;;;;;;;;5.00;4.00;;;;;20.91;39.71;100877.75;6271034;22;45641;-76
2022/05/15 02:18:16;;;;;;;;;4.25;4.25;;;;;20.91;39.54;100869.78;6270434;22;45531;-76
2022/05/15 02:20:42;;;;;;;;;4.75;4.50;;;;;20.87;39.74;100864.97;6270652;22;45591;-76
2022/05/15 02:23:08;;;;;;;;;4.25;4.00;;;;;20.86;39.45;100860.63;6242901;22;47167;-77
2022/05/15 02:25:34;;;;;;;;;3.25;3.25;;;;;20.87;39.53;100859.63;6270417;22;45535;-75
2022/05/15 02:27:59;;;;;;;;;4.00;3.00;;;;;20.87;39.63;100868.44;6270183;22;45545;-77
2022/05/15 02:30:25;;;;;;;;;4.50;4.50;;;;;20.86;39.82;100868.63;6271025;22;46366;-77
2022/05/15 02:36:11;;;;;;;;;4.00;4.00;;;;;20.84;39.79;100870.59;6270480;22;45665;-77
2022/05/15 02:38:38;;;;;;;;;5.50;5.00;;;;;20.83;39.83;100871.63;6242870;22;45488;-77
2022/05/15 02:41:03;;;;;;;;;4.00;4.00;;;;;20.81;39.82;100870.97;6270757;22;46444;-77
2022/05/15 02:43:29;;;;;;;;;5.75;5.00;;;;;20.79;40.20;100865.78;6270566;22;45566;-76
2022/05/15 02:45:55;;;;;;;;;5.00;3.75;;;;;20.81;39.76;100869.13;6270939;22;45605;-77
2022/05/15 02:51:41;;;;;;;;;4.75;4.75;;;;;20.77;39.81;100878.47;6270717;22;46000;-76
2022/05/15 02:54:07;;;;;;;;;4.00;4.00;;;;;20.77;40.11;100877.63;6271082;22;45630;-75
2022/05/15 02:56:33;;;;;;;;;5.50;4.25;;;;;20.75;40.07;100880.44;6270171;22;45498;-75
2022/05/15 02:58:59;;;;;;;;;4.25;4.25;;;;;20.75;40.19;100882.28;6270651;22;45736;-76
2022/05/15 03:01:25;;;;;;;;;3.00;3.00;;;;;20.74;40.33;100878.78;6269797;22;47630;-76
2022/05/15 03:03:51;;;;;;;;;4.75;3.75;;;;;20.73;40.05;100874.44;6270463;22;45645;-76
2022/05/15 03:06:18;;;;;;;;;5.00;3.25;;;;;20.74;39.72;100878.78;6269978;22;45520;-74
2022/05/15 03:08:46;;;;;;;;;3.00;3.00;;;;;20.73;39.80;100869.13;6270954;22;45645;-77
2022/05/15 03:11:12;;;;;;;;;4.25;4.25;;;;;20.75;40.12;100868.97;6270826;22;45600;-77
2022/05/15 03:13:38;;;;;;;;;3.50;3.50;;;;;20.71;39.94;100860.50;6269675;22;46358;-76
2022/05/15 03:16:06;;;;;;;;;5.00;5.00;;;;;20.74;39.89;100859.31;6270094;22;45531;-77
2022/05/15 03:21:52;;;;;;;;;3.75;3.25;;;;;20.72;39.70;100861.31;6270695;22;46013;-76
2022/05/15 03:24:18;;;;;;;;;3.50;3.00;;;;;20.72;39.87;100854.16;6268266;22;46983;-77
2022/05/15 03:26:47;;;;;;;;;4.00;4.00;;;;;20.71;39.66;100851.66;6270589;22;45563;-77
2022/05/15 03:29:15;;;;;;;;;4.25;4.25;;;;;20.69;39.93;100851.81;6270133;22;45554;-77
2022/05/15 03:31:41;;;;;;;;;4.00;4.00;;;;;20.68;39.91;100844.00;6270284;22;48741;-76
2022/05/15 03:34:09;;;;;;;;;5.00;4.00;;;;;20.68;39.90;100844.00;6270983;22;46040;-75
2022/05/15 03:36:36;;;;;;;;;4.00;3.75;;;;;20.63;39.81;100835.69;6270678;22;45620;-76
2022/05/15 03:39:03;;;;;;;;;4.00;4.00;;;;;20.62;39.66;100840.16;6270781;22;45702;-76
2022/05/15 03:41:28;;;;;;;;;3.25;3.00;;;;;20.61;40.11;100837.69;6270675;22;45460;-75
2022/05/15 03:43:54;;;;;;;;;3.00;3.00;;;;;20.57;39.76;100834.53;6269508;22;46111;-76
2022/05/15 03:46:19;;;;;;;;;3.75;3.00;;;;;20.54;40.05;100829.56;6270136;22;45593;-76
2022/05/15 03:52:06;;;;;;;;;3.00;2.50;;;;;20.47;40.28;100825.88;6270283;22;45654;-76
2022/05/15 03:54:32;;;;;;;;;3.50;3.50;;;;;20.44;40.20;100834.22;6270761;22;45555;-76
2022/05/15 03:56:57;;;;;;;;;4.00;4.00;;;;;20.38;40.58;100817.09;6269837;22;45424;-76
2022/05/15 03:59:32;;;;;;;;;4.00;4.00;;;;;20.36;40.16;100816.41;6270611;22;45698;-76
2022/05/15 04:02:04;;;;;;;;;4.00;3.50;;;;;20.36;40.16;100818.25;6268375;22;47288;-76
2022/05/15 04:04:30;;;;;;;;;3.75;3.75;;;;;20.32;40.41;100820.41;6270475;22;45797;-76
2022/05/15 04:06:56;;;;;;;;;4.50;3.50;;;;;20.31;40.40;100826.72;6269657;22;45689;-76
2022/05/15 04:09:22;;;;;;;;;4.50;3.50;;;;;20.30;40.52;100824.19;6270872;22;45728;-76
2022/05/15 04:11:48;;;;;;;;;2.75;2.50;;;;;20.26;40.47;100834.34;6269588;22;46673;-76
2022/05/15 04:14:13;;;;;;;;;2.75;2.75;;;;;20.24;40.78;100833.69;6268339;22;47046;-77
2022/05/15 04:16:39;;;;;;;;;4.50;3.25;;;;;20.23;40.34;100841.84;6270224;22;45641;-77
2022/05/15 04:22:26;;;;;;;;;3.00;3.00;;;;;20.21;40.89;100826.03;6270342;22;45489;-76
2022/05/15 04:24:51;;;;;;;;;6.00;4.25;;;;;20.23;40.66;100825.88;6269750;22;45945;-77
2022/05/15 04:27:16;;;;;;;;;5.00;4.75;;;;;20.22;40.46;100832.19;6269948;22;45567;-76
2022/05/15 04:29:42;;;;;;;;;3.50;3.50;;;;;20.20;40.86;100815.53;6270607;22;45504;-77
2022/05/15 04:32:07;;;;;;;;;4.75;4.25;;;;;20.22;40.62;100817.06;6270277;22;45317;-76
2022/05/15 04:34:33;;;;;;;;;3.50;3.50;;;;;20.20;40.88;100816.38;6269678;22;46536;-76
2022/05/15 04:36:58;;;;;;;;;4.00;3.50;;;;;20.18;41.08;100813.06;6269512;22;45556;-76
2022/05/15 04:39:24;;;;;;;;;5.00;5.00;;;;;20.17;40.87;100815.88;6270248;22;45907;-77
2022/05/15 04:41:50;;;;;;;;;3.75;3.25;;;;;20.06;40.85;100798.44;6270726;22;45784;-76
2022/05/15 04:44:15;;;;;;;;;4.50;4.50;;;;;20.17;40.85;100808.75;6271010;22;46190;-77
2022/05/15 04:46:41;;;;;;;;;4.50;4.50;;;;;20.15;40.73;100808.06;6271687;22;45711;-77
2022/05/15 04:52:28;;;;;;;;;4.25;4.00;;;;;20.13;40.74;100817.22;6269518;22;45992;-77
2022/05/15 04:54:53;;;;;;;;;4.00;4.00;;;;;20.13;40.62;100832.16;6271728;22;46495;-77
2022/05/15 04:57:18;;;;;;;;;5.75;5.00;;;;;20.16;40.86;100832.84;6271378;22;45580;-76
2022/05/15 04:59:44;;;;;;;;;4.25;4.25;;;;;20.15;41.00;100829.34;6271080;22;45526;-76
2022/05/15 05:02:09;;;;;;;;;5.25;4.50;;;;;20.15;41.15;100832.00;6271639;22;45683;-76
2022/05/15 05:08:12;;;;;;;;;5.00;5.00;;;;;20.13;41.22;100836.69;6264575;22;46747;-76
2022/05/15 05:10:39;;;;;;;;;5.00;5.00;;;;;20.12;41.00;100832.34;6270826;22;45863;-76
2022/05/15 05:13:04;;;;;;;;;4.50;4.25;;;;;20.16;41.10;100838.16;6271613;22;46498;-76
2022/05/15 05:15:30;;;;;;;;;6.00;5.00;;;;;20.18;41.30;100826.38;6271665;22;46194;-77
2022/05/15 05:17:56;;;;;;;;;4.75;4.50;;;;;20.18;41.00;100833.53;6271239;22;45673;-76
2022/05/15 05:20:22;;;;;;;;;4.50;4.50;;;;;20.18;40.84;100837.03;6271623;22;45628;-76
2022/05/15 05:22:47;;;;;;;;;4.50;4.50;;;;;20.18;40.96;100836.19;6270831;22;45765;-76
2022/05/15 05:25:13;;;;;;;;;4.75;4.50;;;;;20.22;41.22;100842.84;6270688;22;47228;-76
2022/05/15 05:27:41;;;;;;;;;4.50;4.50;;;;;20.22;41.07;100838.34;6270668;22;45586;-75
2022/05/15 05:30:09;;;;;;;;;4.00;4.00;;;;;20.23;40.88;100841.84;6271246;22;45725;-76
2022/05/15 05:32:35;;;;;;;;;4.00;3.50;;;;;20.23;41.26;100842.69;6270138;22;47336;-76
2022/05/15 05:38:22;;;;;;;;;6.50;4.75;;;;;20.24;41.15;100844.34;6270855;22;45660;-76
2022/05/15 05:40:47;;;;;;;;;4.50;4.50;;;;;20.23;40.94;100845.34;6270611;22;45589;-76
2022/05/15 05:43:13;;;;;;;;;6.50;5.00;;;;;20.26;40.95;100849.47;6270967;22;45828;-76
2022/05/15 05:45:38;;;;;;;;;4.25;4.00;;;;;20.25;40.89;100839.81;6271118;22;45805;-76
2022/05/15 05:48:04;;;;;;;;;5.25;4.50;;;;;20.27;41.21;100845.81;6270432;22;45736;-77
2022/05/15 05:50:30;;;;;;;;;5.00;4.75;;;;;20.23;40.97;100837.34;6271265;22;45456;-77
2022/05/15 05:52:57;;;;;;;;;7.25;4.50;;;;;20.27;40.88;100835.19;6270853;22;45998;-76
2022/05/15 05:55:23;;;;;;;;;5.75;3.50;;;;;20.24;40.92;100831.03;6271602;22;46256;-77
2022/05/15 05:57:49;;;;;;;;;3.50;3.50;;;;;20.29;41.00;100838.53;6271029;22;45632;-76
2022/05/15 06:00:19;;;;;;;;;4.00;4.00;;;;;20.31;41.39;100833.84;6271339;22;45629;-76
2022/05/15 06:02:46;;;;;;;;;5.00;4.25;;;;;20.32;41.01;100839.03;6270454;22;46352;-77
2022/05/15 06:08:33;;;;;;;;;4.00;4.00;;;;;20.36;40.97;100834.22;6265463;22;46194;-77
2022/05/15 06:10:59;;;;;;;;;6.00;4.50;;;;;20.37;40.88;100826.06;6270792;22;45605;-77
2022/05/15 06:13:25;;;;;;;;;4.75;3.50;;;;;20.40;40.81;100840.88;6243133;22;48184;-77
2022/05/15 06:15:52;;;;;;;;;5.50;4.75;;;;;20.42;40.58;100837.03;6268572;22;46412;-77
2022/05/15 06:18:17;;;;;;;;;3.25;3.00;;;;;20.45;40.70;100844.72;6270226;22;45720;-76
2022/05/15 06:20:43;;;;;;;;;4.00;4.00;;;;;20.50;40.79;100842.38;6271190;22;45589;-76
2022/05/15 06:23:08;;;;;;;;;4.50;4.50;;;;;20.55;40.73;100838.38;6271238;22;46384;-76
2022/05/15 06:25:33;;;;;;;;;3.50;3.50;;;;;20.60;40.60;100831.53;6271300;22;45511;-75
2022/05/15 06:27:59;;;;;;;;;5.75;4.00;;;;;20.60;40.63;100826.22;6271428;22;46011;-77
2022/05/15 06:30:24;;;;;;;;;4.00;3.75;;;;;20.63;40.55;100827.69;6270615;22;46042;-77
2022/05/15 06:32:50;;;;;;;;;4.25;4.00;;;;;20.68;40.46;100828.00;6270715;22;45764;-79
2022/05/15 06:38:40;;;;;;;;;3.75;3.75;;;;;20.72;40.45;100834.69;6273391;22;45520;-81
2022/05/15 06:41:07;;;;;;;;;4.25;4.00;;;;;20.77;40.39;100843.84;6273896;22;45636;-79
2022/05/15 06:43:33;;;;;;;;;4.25;3.75;;;;;20.79;40.23;100844.47;6274000;22;46491;-78
2022/05/15 06:45:58;;;;;;;;;4.50;4.25;;;;;20.76;40.53;100841.34;6272455;22;46332;-78
2022/05/15 06:48:23;;;;;;;;;5.00;4.00;;;;;20.75;40.15;100839.66;6271210;22;45511;-79
2022/05/15 06:54:11;;;;;;;;;5.00;4.25;;;;;20.88;40.04;100846.16;6273717;22;45578;-78
2022/05/15 06:59:20;;;;;;;;;4.00;3.75;;;;;20.91;40.20;100835.13;6272632;22;45624;-79
2022/05/15 07:01:46;;;;;;;;;4.00;4.00;;;;;20.95;40.07;100831.13;6272804;22;45570;-79
2022/05/15 07:04:11;;;;;;;;;4.50;3.50;;;;;20.94;40.17;100821.47;6272606;22;45624;-79
2022/05/15 07:06:36;;;;;;;;;4.75;4.75;;;;;20.95;40.08;100812.47;6273834;22;46351;-79
2022/05/15 07:09:02;;;;;;;;;4.25;4.25;;;;;20.97;39.96;100814.16;6270532;22;45913;-78
2022/05/15 07:11:27;;;;;;;;;5.00;4.50;;;;;21.03;39.63;100824.97;6271279;22;45431;-77
2022/05/15 07:13:53;;;;;;;;;5.00;4.50;;;;;20.99;39.91;100810.31;6270443;22;45515;-78
2022/05/15 07:16:18;;;;;;;;;5.00;4.75;;;;;21.05;40.00;100814.13;6270158;22;45881;-78
2022/05/15 07:18:44;;;;;;;;;3.25;3.25;;;;;21.07;39.94;100806.78;6269570;22;45564;-76
2022/05/15 07:24:31;;;;;;;;;4.75;4.00;;;;;21.12;39.97;100797.28;6268148;22;46379;-79
2022/05/15 07:26:56;;;;;;;;;4.50;3.75;;;;;21.17;39.86;100788.78;6269341;22;45710;-78
2022/05/15 07:29:24;;;;;;;;;3.50;3.00;;;;;21.19;39.85;100790.28;6237905;22;45872;-77
2022/05/15 07:31:51;;;;;;;;;5.75;3.00;;;;;21.22;39.85;100791.75;6270277;22;45754;-78
2022/05/15 07:34:17;;;;;;;;;4.00;4.00;;;;;21.23;39.53;100783.59;6269933;22;46076;-79
2022/05/15 07:36:55;;;;;;;;;5.00;5.00;;;;;21.24;39.96;100779.09;5159466;27;46208;-79
2022/05/15 07:39:21;;;;;;;;;3.00;3.00;;;;;21.31;39.15;100785.41;5107190;27;46078;-79
2022/05/15 07:41:47;;;;;;;;;4.50;4.00;;;;;21.40;39.51;100792.34;5110381;27;45793;-79
2022/05/15 07:44:13;;;;;;;;;4.00;4.00;;;;;21.37;39.66;100781.22;5122513;27;46631;-78
2022/05/15 07:46:40;;;;;;;;;4.25;4.25;;;;;21.43;39.55;100775.19;5114680;27;45975;-79
2022/05/15 07:49:06;;;;;;;;;3.00;3.00;;;;;21.47;39.69;100773.81;5116770;27;45650;-79
2022/05/15 07:51:32;;;;;;;;;4.00;3.50;;;;;21.54;38.98;100775.59;5114070;27;45690;-79
2022/05/15 07:53:59;;;;;;;;;3.75;3.00;;;;;21.58;39.27;100773.44;5110089;27;45779;-80
2022/05/15 07:56:25;;;;;;;;;3.00;3.00;;;;;21.61;39.60;100762.41;5104902;27;46562;-79
2022/05/15 07:58:51;;;;;;;;;4.25;4.00;;;;;21.65;39.03;100763.69;5111334;27;45832;-79
2022/05/15 08:01:16;;;;;;;;;3.75;3.50;;;;;21.77;39.17;100773.78;5108618;27;45964;-78
2022/05/15 08:03:46;;;;;;;;;4.00;3.25;;;;;21.84;39.17;100765.06;5115606;27;45698;-77
2022/05/15 08:08:59;;;;;;;;;5.00;3.50;;;;;21.89;39.11;100760.88;5119042;27;45939;-86
2022/05/15 08:11:28;;;;;;;;;4.25;4.00;;;;;21.96;38.86;100745.00;5118183;27;46229;-89
2022/05/15 08:13:55;;;;;;;;;3.00;3.00;;;;;21.93;38.81;100724.81;5126478;27;45907;-87
2022/05/15 08:16:21;;;;;;;;;4.00;3.00;;;;;22.06;38.41;100737.59;5117922;27;46377;-90
2022/05/15 08:24:16;;;;;;;;;4.50;4.25;;;;;22.27;38.00;100720.88;5117748;27;46079;-85
2022/05/15 08:26:44;;;;;;;;;4.00;4.00;;;;;22.33;37.81;100725.47;5122784;27;45549;-82
2022/05/15 08:29:10;;;;;;;;;4.50;3.00;;;;;22.36;37.67;100717.94;5111508;27;45604;-76
2022/05/15 08:31:35;;;;;;;;;4.00;4.00;;;;;22.45;37.35;100719.53;5119224;27;45694;-77
2022/05/15 08:34:03;;;;;;;;;2.50;2.00;;;;;22.53;37.67;100731.94;5122605;27;46490;-76
2022/05/15 08:36:29;;;;;;;;;2.50;2.50;;;;;22.57;37.54;100727.88;5115305;27;45643;-79
2022/05/15 08:38:54;;;;;;;;;5.00;4.00;;;;;22.60;36.89;100716.84;5119156;27;45717;-75
2022/05/15 08:41:22;;;;;;;;;3.00;3.00;;;;;22.70;37.25;100728.09;5126529;27;45973;-77
2022/05/15 08:44:14;;;;;;;;;2.00;2.00;;;;;22.75;37.04;100720.38;5117978;27;45717;-75
2022/05/15 08:46:54;;;;;;;;;4.25;3.00;;;;;22.82;36.83;100707.09;5034964;28;46820;-76
2022/05/15 08:49:26;;;;;;;;;2.00;2.00;;;;;22.88;36.85;100709.88;5018798;28;45745;-77
2022/05/15 08:52:09;;;;;;;;;3.75;3.00;;;;;22.96;37.30;100712.41;5030691;28;45857;-75
2022/05/15 08:54:40;;;;;;;;;3.00;3.00;;;;;22.98;37.05;100706.91;5008980;28;47402;-75
2022/05/15 08:57:15;;;;;;;;;2.00;2.00;;;;;23.07;36.85;100705.75;5014561;28;47473;-76
2022/05/15 08:59:51;;;;;;;;;4.00;3.25;;;;;23.14;36.69;100708.53;5024560;28;45804;-77
2022/05/15 09:02:16;;;;;;;;;2.00;2.00;;;;;23.18;36.45;100699.09;5009789;28;45738;-77
2022/05/15 09:04:41;;;;;;;;;3.00;2.25;;;;;23.26;36.52;100699.84;5001251;28;46835;-77
2022/05/15 09:07:35;;;;;;;;;4.00;2.00;;;;;23.34;35.99;100702.38;5019381;28;47100;-77
2022/05/15 09:10:11;;;;;;;;;3.25;3.00;;;;;23.41;35.58;100699.78;5027194;28;45623;-77
2022/05/15 09:12:37;;;;;;;;;4.00;2.00;;;;;23.47;35.91;100698.22;5025903;28;45617;-77
2022/05/15 09:15:22;;;;;;;;;3.00;2.75;;;;;23.54;35.78;100705.28;5021929;28;46747;-78
2022/05/15 09:17:52;;;;;;;;;4.00;3.00;;;;;23.60;35.48;100701.00;5014085;28;46092;-77
2022/05/15 09:20:24;;;;;;;;;3.00;3.00;;;;;23.65;35.19;100702.09;5028376;28;45691;-78
2022/05/15 09:23:06;;;;;;;;;3.00;3.00;;;;;23.70;35.89;100694.31;5016190;27;45969;-78
2022/05/15 09:25:36;;;;;;;;;3.00;3.00;;;;;23.77;35.29;100697.88;5106065;27;47082;-78
2022/05/15 09:28:11;;;;;;;;;3.75;3.00;;;;;23.84;35.44;100695.28;5100546;27;47069;-78
2022/05/15 09:30:38;;;;;;;;;2.50;2.25;;;;;23.91;35.75;100698.84;5102851;27;45874;-77
2022/05/15 09:33:04;;;;;;;;;4.00;3.00;;;;;23.97;35.27;100684.66;5097489;27;45683;-77
2022/05/15 09:35:35;;;;;;;;;2.00;2.00;;;;;24.04;35.95;100685.53;5101582;27;45962;-76
2022/05/15 09:43:40;;;;;;;;;3.00;3.00;;;;;24.26;35.03;100678.31;5083495;27;46590;-75
2022/05/15 09:46:18;;;;;;;;;3.00;3.00;;;;;24.32;34.87;100679.38;5097677;27;46229;-75
2022/05/15 09:49:22;;;;;;;;;4.00;3.00;;;;;24.40;34.25;100666.66;5097989;27;46902;-76
2022/05/15 09:51:54;;;;;;;;;2.00;2.00;;;;;24.48;33.94;100665.69;5095762;27;45707;-77
2022/05/15 09:54:49;;;;;;;;;1.50;1.00;;;;;24.55;33.96;100667.38;5096261;27;46348;-79
2022/05/15 09:57:27;;;;;;;;;2.00;2.00;;;;;24.63;33.61;100666.38;5032902;28;45936;-76
2022/05/15 09:59:55;;;;;;;;;2.00;2.00;;;;;24.69;33.38;100662.88;5027215;28;46004;-79
2022/05/15 10:02:24;;;;;;;;;2.00;2.00;;;;;24.75;33.07;100661.28;5037717;28;45761;-76
2022/05/15 10:04:52;;;;;;;;;1.75;1.75;;;;;24.81;32.92;100658.63;5045539;28;45720;-78
2022/05/15 10:07:33;;;;;;;;;3.50;2.00;;;;;24.89;32.22;100653.09;5035432;28;46749;-77
2022/05/15 10:10:16;;;;;;;;;1.00;1.00;;;;;24.95;32.38;100644.25;5038551;28;46513;-77
2022/05/15 10:12:43;;;;;;;;;2.25;2.00;;;;;25.00;32.05;100649.84;5027764;28;46251;-76
2022/05/15 10:15:10;;;;;;;;;1.00;1.00;;;;;25.04;31.91;100640.38;5032751;28;46143;-75
2022/05/15 10:17:46;;;;;;;;;2.00;2.00;;;;;25.12;31.71;100631.31;5037937;28;46241;-80
2022/05/15 10:20:22;;;;;;;;;3.25;2.75;;;;;25.20;31.79;100633.81;5026310;28;45895;-75
2022/05/15 10:22:48;;;;;;;;;2.50;2.00;;;;;25.26;31.50;100632.19;5032922;28;45685;-77
2022/05/15 10:25:18;;;;;;;;;2.75;2.50;;;;;25.33;31.50;100633.81;5036196;28;45900;-76
2022/05/15 10:27:54;;;;;;;;;3.00;2.00;;;;;25.38;31.45;100631.34;5032315;28;45822;-77
2022/05/15 10:30:25;;;;;;;;;2.00;2.00;;;;;25.43;31.49;100623.50;5020514;28;45733;-77
2022/05/15 10:32:59;;;;;;;;;2.50;2.00;;;;;25.50;30.99;100627.03;5036979;27;47678;-76
2022/05/15 10:35:53;;;;;;;;;2.00;1.75;;;;;25.57;31.23;100626.25;5086017;27;45673;-76
2022/05/15 10:38:37;;;;;;;;;4.00;4.00;;;;;25.64;31.21;100619.03;5088592;27;46799;-76
2022/05/15 10:41:19;;;;;;;;;2.00;2.00;;;;;25.64;31.30;100609.09;5092523;27;46461;-79
2022/05/15 10:43:58;;;;;;;;;10.75;9.50;;;;;25.74;31.27;100612.22;5091383;27;46605;-79
2022/05/15 10:46:33;;;;;;;;;4.00;3.00;;;;;25.77;31.62;100619.84;5089178;27;45750;-77
2022/05/15 10:49:22;;;;;;;;;14.50;14.50;;;;;25.84;31.33;100609.91;5092200;27;47774;-78
2022/05/15 10:52:23;;;;;;;;;2.50;2.00;;;;;25.86;31.28;100607.00;5091183;27;46114;-78
2022/05/15 10:58:11;;;;;;;;;4.00;3.00;;;;;26.01;31.25;100609.47;5089584;27;46329;-78
2022/05/15 11:01:03;;;;;;;;;2.00;2.00;;;;;26.04;30.66;100596.44;5088239;27;46330;-79
2022/05/15 11:04:04;;;;;;;;;3.00;1.50;;;;;26.09;31.20;100596.66;5087778;27;46314;-78
2022/05/15 11:06:49;;;;;;;;;3.00;2.25;;;;;26.15;30.76;100603.88;5090183;27;45732;-78
2022/05/15 11:09:54;;;;;;;;;2.00;2.00;;;;;26.20;30.67;100601.38;5090128;27;45669;-80
2022/05/15 11:12:47;;;;;;;;;2.00;2.00;;;;;26.24;30.79;100591.03;5082473;27;46723;-79
2022/05/15 11:15:27;;;;;;;;;2.00;2.00;;;;;26.29;30.52;100591.25;5090656;27;46111;-79
2022/05/15 11:18:16;;;;;;;;;3.00;2.50;;;;;26.33;30.57;100584.44;5088269;27;45824;-79
2022/05/15 11:20:56;;;;;;;;;2.00;2.00;;;;;26.37;30.23;100584.81;5095815;27;46078;-79
2022/05/15 11:23:38;;;;;;;;;2.25;2.00;;;;;26.43;30.11;100582.09;5084222;27;45677;-78
2022/05/15 11:26:08;;;;;;;;;2.00;2.00;;;;;26.45;30.68;100579.22;5094362;27;46527;-79
2022/05/15 11:28:38;;;;;;;;;2.00;2.00;;;;;26.49;30.38;100569.69;5093995;27;45721;-80
2022/05/15 11:31:13;;;;;;;;;2.00;2.00;;;;;26.51;29.77;100573.78;5095137;27;45587;-89
2022/05/15 11:33:55;;;;;;;;;2.00;2.00;;;;;26.59;30.49;100568.19;5093510;27;48635;-79
2022/05/15 11:36:30;;;;;;;;;2.00;2.00;;;;;26.62;29.88;100570.44;5093695;27;45581;-79
2022/05/15 11:38:55;;;;;;;;;4.50;3.50;;;;;26.67;29.62;100565.22;5093741;27;45597;-79
2022/05/15 11:41:36;;;;;;;;;2.25;2.25;;;;;26.72;29.68;100565.41;5094349;27;45542;-79
2022/05/15 11:44:04;;;;;;;;;2.00;2.00;;;;;26.68;29.36;100544.56;5094338;27;45628;-79
2022/05/15 11:46:57;;;;;;;;;3.00;3.00;;;;;26.78;29.39;100554.84;5093812;27;45780;-79
2022/05/15 11:49:40;;;;;;;;;2.50;2.50;;;;;26.82;29.48;100558.75;5093915;27;45641;-80
2022/05/15 11:55:36;;;;;;;;;2.00;2.00;;;;;26.96;28.71;100563.03;5093507;27;45464;-82
2022/05/15 11:58:34;;;;;;;;;2.75;2.75;;;;;27.00;28.93;100561.56;5094142;27;45783;-78
2022/05/15 12:01:18;;;;;;;;;2.25;2.00;;;;;27.03;28.06;100559.28;5093062;27;45718;-77
2022/05/15 12:04:03;;;;;;;;;3.00;2.00;;;;;27.10;28.43;100564.59;5092869;27;45771;-78
2022/05/15 12:06:32;;;;;;;;;2.00;2.00;;;;;27.13;28.06;100558.78;5094316;27;47485;-80
2022/05/15 12:12:23;;;;;;;;;2.00;2.00;;;;;27.24;30.95;100543.78;5095747;27;45682;-87
2022/05/15 12:15:24;;;;;;;;;3.00;2.00;;;;;27.27;30.02;100538.78;5093279;27;45992;-84
2022/05/15 12:17:49;;;;;;;;;2.00;2.00;;;;;27.30;29.23;100538.38;5094721;27;45630;-85
2022/05/15 12:20:19;;;;;;;;;3.00;3.00;;;;;27.33;30.17;100537.91;5094867;27;46273;-87
2022/05/15 12:22:52;;;;;;;;;3.00;1.50;;;;;27.29;31.11;100515.19;5098865;27;45634;-90
2022/05/15 12:25:25;;;;;;;;;2.00;2.00;;;;;27.41;29.61;100521.50;5098604;27;45712;-85
2022/05/15 12:31:04;;;;;;;;;3.00;2.00;;;;;27.47;28.76;100520.63;5077592;28;46085;-84
2022/05/15 12:33:30;;;;;;;;;2.25;2.25;;;;;27.47;30.08;100509.03;5077168;28;45708;-84
2022/05/15 12:35:58;;;;;;;;;2.00;2.00;;;;;27.59;29.59;100523.41;5075594;27;45893;-87
2022/05/15 12:38:26;;;;;;;;;2.00;2.00;;;;;27.69;29.67;100525.63;5075759;28;45887;-83
2022/05/15 12:41:13;;;;;;;;;2.00;2.00;;;;;27.73;29.65;100518.75;5076185;28;45691;-85
2022/05/15 12:43:44;;;;;;;;;2.00;2.00;;;;;27.83;28.95;100524.44;5075633;28;45522;-85
2022/05/15 12:46:35;;;;;;;;;1.25;1.00;;;;;27.92;28.89;100525.75;5075561;28;45696;-85
2022/05/15 12:49:02;;;;;;;;;1.50;1.50;;;;;28.00;28.56;100513.88;5075407;28;45655;-83
2022/05/15 12:51:31;;;;;;;;;3.00;2.00;;;;;28.05;28.65;100511.34;5075610;28;45955;-87
2022/05/15 12:53:58;;;;;;;;;3.75;3.00;;;;;28.16;27.88;100514.13;5075652;28;45831;-88
2022/05/15 12:56:31;;;;;;;;;2.75;2.75;;;;;28.19;29.47;100504.75;5075445;28;45947;-85
2022/05/15 12:59:07;;;;;;;;;2.00;2.00;;;;;28.30;29.82;100499.41;5078194;28;46752;-87
2022/05/15 13:01:33;;;;;;;;;3.75;3.75;;;;;28.32;28.74;100497.34;5058970;28;47323;-87